PDT5821 KORF-KPHL
Flight info
| Callsign | PDT5821 |
|---|---|
| Flight time | 0h 48m |
| Altitude | 19000 |
| Route | HOLND1 KALDA ZJAAY JIIMS4 |
| Aircraft | E145/M-SDFGIRW/S |
Departure
| Time | 2026-04-21 20:52 |
|---|---|
| Airport | Norfolk International Airport (KORF) |
Arrival
| Time | 2026-04-21 21:41 |
|---|---|
| Airport | Philadelphia International Airport (KPHL) |
| Time | Latitude | Longitude | Altitude | Speed | Heading |
|---|---|---|---|---|---|
| 2026-04-21 20:24 | 36.89857 | -76.20126 | 28 ft | 0 kts | 354° |
| 2026-04-21 20:44 | 36.89847 | -76.20124 | 28 ft | 2 kts | 354° |
| 2026-04-21 20:44 | 36.89832 | -76.20122 | 28 ft | 2 kts | 354° |
| 2026-04-21 20:44 | 36.89817 | -76.20120 | 28 ft | 2 kts | 354° |
| 2026-04-21 20:45 | 36.89803 | -76.20123 | 28 ft | 2 kts | 33° |
| 2026-04-21 20:45 | 36.89793 | -76.20137 | 28 ft | 2 kts | 72° |
| 2026-04-21 20:45 | 36.89793 | -76.20155 | 28 ft | 1 kts | 110° |
| 2026-04-21 20:45 | 36.89794 | -76.20159 | 28 ft | 0 kts | 114° |
| 2026-04-21 20:48 | 36.89782 | -76.20128 | 28 ft | 9 kts | 116° |
| 2026-04-21 20:48 | 36.89743 | -76.20011 | 28 ft | 14 kts | 118° |
| 2026-04-21 20:48 | 36.89660 | -76.20012 | 28 ft | 14 kts | 217° |
| 2026-04-21 20:49 | 36.89575 | -76.20092 | 28 ft | 16 kts | 217° |
| 2026-04-21 20:49 | 36.89482 | -76.20181 | 28 ft | 17 kts | 218° |
| 2026-04-21 20:49 | 36.89380 | -76.20280 | 28 ft | 19 kts | 218° |
| 2026-04-21 20:49 | 36.89269 | -76.20387 | 28 ft | 20 kts | 218° |
| 2026-04-21 20:50 | 36.89144 | -76.20496 | 28 ft | 22 kts | 213° |
| 2026-04-21 20:50 | 36.89014 | -76.20599 | 28 ft | 22 kts | 212° |
| 2026-04-21 20:50 | 36.88882 | -76.20718 | 28 ft | 23 kts | 217° |
| 2026-04-21 20:50 | 36.88750 | -76.20847 | 28 ft | 24 kts | 218° |
| 2026-04-21 20:51 | 36.88632 | -76.20881 | 28 ft | 16 kts | 140° |
| 2026-04-21 20:51 | 36.88621 | -76.20795 | 28 ft | 11 kts | 46° |
| 2026-04-21 20:51 | 36.88698 | -76.20720 | 28 ft | 23 kts | 37° |
| 2026-04-21 20:51 | 36.89011 | -76.20420 | 28 ft | 89 kts | 38° |
| 2026-04-21 20:52 | 36.89653 | -76.19800 | 31 ft | 138 kts | 38° |
| 2026-04-21 20:52 | 36.90456 | -76.19057 | 348 ft | 150 kts | 37° |
| 2026-04-21 20:52 | 36.91330 | -76.18260 | 786 ft | 160 kts | 37° |
| 2026-04-21 20:52 | 36.92254 | -76.17402 | 1217 ft | 172 kts | 36° |
| 2026-04-21 20:53 | 36.93272 | -76.16474 | 1564 ft | 193 kts | 36° |
| 2026-04-21 20:53 | 36.94430 | -76.15415 | 1914 ft | 217 kts | 35° |
| 2026-04-21 20:53 | 36.95701 | -76.14239 | 2246 ft | 241 kts | 37° |
| 2026-04-21 20:53 | 36.97018 | -76.12792 | 2719 ft | 257 kts | 40° |
| 2026-04-21 20:54 | 36.98334 | -76.11296 | 3469 ft | 260 kts | 40° |
| 2026-04-21 20:54 | 36.99516 | -76.09624 | 4324 ft | 259 kts | 53° |
| 2026-04-21 20:54 | 37.00516 | -76.07758 | 5150 ft | 258 kts | 52° |
| 2026-04-21 20:54 | 37.01517 | -76.05913 | 5942 ft | 257 kts | 51° |
| 2026-04-21 20:55 | 37.02511 | -76.04079 | 6695 ft | 257 kts | 50° |
| 2026-04-21 20:55 | 37.03517 | -76.02220 | 7413 ft | 258 kts | 50° |
| 2026-04-21 20:55 | 37.04528 | -76.00351 | 8065 ft | 261 kts | 50° |
| 2026-04-21 20:55 | 37.05540 | -75.98480 | 8753 ft | 262 kts | 49° |
| 2026-04-21 20:56 | 37.06581 | -75.96557 | 9227 ft | 272 kts | 50° |
| 2026-04-21 20:56 | 37.07647 | -75.94580 | 9742 ft | 279 kts | 50° |
| 2026-04-21 20:56 | 37.08724 | -75.92583 | 10474 ft | 279 kts | 49° |
| 2026-04-21 20:56 | 37.09835 | -75.90526 | 10914 ft | 290 kts | 49° |
| 2026-04-21 20:57 | 37.10965 | -75.88300 | 11121 ft | 311 kts | 54° |
| 2026-04-21 20:57 | 37.12011 | -75.85908 | 11672 ft | 315 kts | 54° |
| 2026-04-21 20:57 | 37.13070 | -75.83501 | 12312 ft | 315 kts | 54° |
| 2026-04-21 20:57 | 37.14130 | -75.81096 | 12885 ft | 318 kts | 54° |
| 2026-04-21 20:58 | 37.15197 | -75.78670 | 13439 ft | 320 kts | 54° |
| 2026-04-21 20:58 | 37.16275 | -75.76216 | 13962 ft | 323 kts | 54° |
| 2026-04-21 20:58 | 37.17385 | -75.73799 | 14521 ft | 320 kts | 47° |
| 2026-04-21 20:58 | 37.18993 | -75.71984 | 14926 ft | 310 kts | 23° |
| 2026-04-21 20:59 | 37.21025 | -75.71217 | 15422 ft | 302 kts | 2° |
| 2026-04-21 20:59 | 37.23122 | -75.70927 | 15920 ft | 305 kts | 2° |
| 2026-04-21 20:59 | 37.25237 | -75.70634 | 16380 ft | 308 kts | 2° |
| 2026-04-21 20:59 | 37.27375 | -75.70343 | 16837 ft | 311 kts | 2° |
| 2026-04-21 21:00 | 37.29530 | -75.70051 | 17349 ft | 312 kts | 2° |
| 2026-04-21 21:00 | 37.31667 | -75.69763 | 17785 ft | 315 kts | 2° |
| 2026-04-21 21:00 | 37.33862 | -75.69467 | 18286 ft | 315 kts | 2° |
| 2026-04-21 21:00 | 37.36046 | -75.69173 | 18871 ft | 312 kts | 2° |
| 2026-04-21 21:01 | 37.38197 | -75.68883 | 19290 ft | 316 kts | 1° |
| 2026-04-21 21:01 | 37.40403 | -75.68586 | 19314 ft | 315 kts | 1° |
| 2026-04-21 21:01 | 37.42532 | -75.68297 | 19300 ft | 300 kts | 1° |
| 2026-04-21 21:01 | 37.44587 | -75.68019 | 19303 ft | 288 kts | 1° |
| 2026-04-21 21:02 | 37.46567 | -75.67754 | 19309 ft | 287 kts | 1° |
| 2026-04-21 21:02 | 37.48552 | -75.67487 | 19311 ft | 288 kts | 1° |
| 2026-04-21 21:02 | 37.50565 | -75.67215 | 19323 ft | 290 kts | 1° |
| 2026-04-21 21:02 | 37.52563 | -75.66945 | 19322 ft | 292 kts | 1° |
| 2026-04-21 21:03 | 37.54583 | -75.66672 | 19318 ft | 293 kts | 1° |
| 2026-04-21 21:03 | 37.56621 | -75.66396 | 19325 ft | 294 kts | 1° |
| 2026-04-21 21:03 | 37.58666 | -75.66119 | 19318 ft | 295 kts | 1° |
| 2026-04-21 21:03 | 37.60705 | -75.65842 | 19324 ft | 295 kts | 1° |
| 2026-04-21 21:04 | 37.62761 | -75.65563 | 19331 ft | 295 kts | 1° |
| 2026-04-21 21:04 | 37.64795 | -75.65288 | 19331 ft | 296 kts | 1° |
| 2026-04-21 21:04 | 37.66848 | -75.65009 | 19336 ft | 297 kts | 1° |
| 2026-04-21 21:04 | 37.68908 | -75.64728 | 19342 ft | 298 kts | 1° |
| 2026-04-21 21:05 | 37.70987 | -75.64446 | 19342 ft | 300 kts | 1° |
| 2026-04-21 21:05 | 37.73077 | -75.64162 | 19329 ft | 301 kts | 1° |
| 2026-04-21 21:05 | 37.75174 | -75.63877 | 19331 ft | 301 kts | 1° |
| 2026-04-21 21:05 | 37.77245 | -75.63595 | 19334 ft | 302 kts | 1° |
| 2026-04-21 21:06 | 37.79332 | -75.63311 | 19332 ft | 302 kts | 1° |
| 2026-04-21 21:06 | 37.81440 | -75.63023 | 19331 ft | 303 kts | 1° |
| 2026-04-21 21:06 | 37.83550 | -75.62692 | 19325 ft | 306 kts | 7° |
| 2026-04-21 21:06 | 37.85489 | -75.61554 | 19326 ft | 318 kts | 27° |
| 2026-04-21 21:07 | 37.87318 | -75.59946 | 19308 ft | 318 kts | 27° |
| 2026-04-21 21:07 | 37.89151 | -75.58350 | 19324 ft | 318 kts | 27° |
| 2026-04-21 21:07 | 37.90964 | -75.56773 | 19316 ft | 318 kts | 27° |
| 2026-04-21 21:07 | 37.92803 | -75.55173 | 19303 ft | 318 kts | 27° |
| 2026-04-21 21:08 | 37.94625 | -75.53586 | 19312 ft | 318 kts | 27° |
| 2026-04-21 21:08 | 37.96458 | -75.51988 | 19318 ft | 318 kts | 27° |
| 2026-04-21 21:08 | 37.98273 | -75.50406 | 19313 ft | 319 kts | 27° |
| 2026-04-21 21:08 | 38.00104 | -75.48808 | 19314 ft | 319 kts | 27° |
| 2026-04-21 21:09 | 38.01945 | -75.47201 | 19314 ft | 319 kts | 27° |
| 2026-04-21 21:09 | 38.03770 | -75.45608 | 19316 ft | 319 kts | 27° |
| 2026-04-21 21:09 | 38.05625 | -75.44089 | 19320 ft | 314 kts | 20° |
| 2026-04-21 21:09 | 38.07603 | -75.42928 | 19324 ft | 313 kts | 17° |
| 2026-04-21 21:10 | 38.09592 | -75.41767 | 19303 ft | 313 kts | 18° |
| 2026-04-21 21:10 | 38.11563 | -75.40615 | 19317 ft | 313 kts | 18° |
| 2026-04-21 21:10 | 38.13581 | -75.39435 | 19311 ft | 313 kts | 18° |
| 2026-04-21 21:10 | 38.15548 | -75.38284 | 19325 ft | 314 kts | 18° |
| 2026-04-21 21:11 | 38.17552 | -75.37109 | 19304 ft | 315 kts | 18° |
| 2026-04-21 21:11 | 38.19530 | -75.35950 | 19313 ft | 315 kts | 18° |
| 2026-04-21 21:11 | 38.21544 | -75.34769 | 19320 ft | 315 kts | 18° |
| 2026-04-21 21:11 | 38.23519 | -75.33610 | 19310 ft | 315 kts | 18° |
| 2026-04-21 21:12 | 38.25534 | -75.32426 | 19304 ft | 315 kts | 18° |
| 2026-04-21 21:12 | 38.27525 | -75.31257 | 19309 ft | 315 kts | 18° |
| 2026-04-21 21:12 | 38.29514 | -75.30087 | 19317 ft | 315 kts | 18° |
| 2026-04-21 21:12 | 38.31515 | -75.28910 | 19312 ft | 315 kts | 18° |
| 2026-04-21 21:13 | 38.33496 | -75.27744 | 19309 ft | 315 kts | 18° |
| 2026-04-21 21:13 | 38.35497 | -75.26566 | 19307 ft | 315 kts | 18° |
| 2026-04-21 21:13 | 38.37483 | -75.25395 | 19316 ft | 315 kts | 18° |
| 2026-04-21 21:13 | 38.39469 | -75.24223 | 19317 ft | 315 kts | 18° |
| 2026-04-21 21:14 | 38.41484 | -75.23035 | 19317 ft | 315 kts | 18° |
| 2026-04-21 21:14 | 38.43465 | -75.21865 | 19316 ft | 315 kts | 18° |
| 2026-04-21 21:14 | 38.45453 | -75.20690 | 19322 ft | 315 kts | 18° |
| 2026-04-21 21:14 | 38.47458 | -75.19505 | 19319 ft | 315 kts | 18° |
| 2026-04-21 21:15 | 38.49444 | -75.18330 | 19327 ft | 316 kts | 18° |
| 2026-04-21 21:15 | 38.51445 | -75.17146 | 19321 ft | 317 kts | 18° |
| 2026-04-21 21:15 | 38.53444 | -75.15962 | 19318 ft | 317 kts | 18° |
| 2026-04-21 21:15 | 38.55442 | -75.14778 | 19313 ft | 317 kts | 18° |
| 2026-04-21 21:16 | 38.57441 | -75.13589 | 19309 ft | 317 kts | 19° |
| 2026-04-21 21:16 | 38.59407 | -75.12335 | 19309 ft | 317 kts | 20° |
| 2026-04-21 21:16 | 38.61385 | -75.11071 | 19323 ft | 317 kts | 20° |
| 2026-04-21 21:16 | 38.63374 | -75.09799 | 19323 ft | 317 kts | 20° |
| 2026-04-21 21:17 | 38.65341 | -75.08540 | 19323 ft | 317 kts | 19° |
| 2026-04-21 21:17 | 38.67297 | -75.07287 | 19322 ft | 317 kts | 19° |
| 2026-04-21 21:17 | 38.69276 | -75.06020 | 19319 ft | 317 kts | 19° |
| 2026-04-21 21:17 | 38.71265 | -75.04744 | 19317 ft | 317 kts | 19° |
| 2026-04-21 21:18 | 38.73224 | -75.03487 | 19314 ft | 317 kts | 19° |
| 2026-04-21 21:18 | 38.75185 | -75.02228 | 19317 ft | 316 kts | 19° |
| 2026-04-21 21:18 | 38.77174 | -75.00950 | 19319 ft | 317 kts | 19° |
| 2026-04-21 21:18 | 38.79132 | -74.99692 | 19318 ft | 316 kts | 19° |
| 2026-04-21 21:19 | 38.81097 | -74.98428 | 19318 ft | 316 kts | 19° |
| 2026-04-21 21:19 | 38.83084 | -74.97149 | 19318 ft | 316 kts | 19° |
| 2026-04-21 21:19 | 38.85050 | -74.95883 | 19312 ft | 316 kts | 19° |
| 2026-04-21 21:19 | 38.87005 | -74.94623 | 19301 ft | 315 kts | 19° |
| 2026-04-21 21:20 | 38.88968 | -74.93358 | 19314 ft | 314 kts | 19° |
| 2026-04-21 21:20 | 38.90911 | -74.92104 | 19315 ft | 314 kts | 19° |
| 2026-04-21 21:20 | 38.92868 | -74.90840 | 19312 ft | 314 kts | 19° |
| 2026-04-21 21:20 | 38.94824 | -74.89576 | 19312 ft | 313 kts | 19° |
| 2026-04-21 21:21 | 38.96757 | -74.88327 | 19315 ft | 313 kts | 19° |
| 2026-04-21 21:21 | 38.98702 | -74.87068 | 19315 ft | 313 kts | 19° |
| 2026-04-21 21:21 | 39.00676 | -74.85792 | 19314 ft | 313 kts | 19° |
| 2026-04-21 21:21 | 39.02596 | -74.84547 | 19309 ft | 313 kts | 19° |
| 2026-04-21 21:22 | 39.04538 | -74.83289 | 19329 ft | 313 kts | 19° |
| 2026-04-21 21:22 | 39.06482 | -74.82029 | 19323 ft | 314 kts | 19° |
| 2026-04-21 21:22 | 39.08452 | -74.80821 | 19297 ft | 309 kts | 12° |
| 2026-04-21 21:22 | 39.10513 | -74.80535 | 19324 ft | 294 kts | 348° |
| 2026-04-21 21:23 | 39.12519 | -74.81185 | 19318 ft | 291 kts | 341° |
| 2026-04-21 21:23 | 39.14460 | -74.81889 | 19307 ft | 292 kts | 341° |
| 2026-04-21 21:23 | 39.16357 | -74.82592 | 19303 ft | 293 kts | 341° |
| 2026-04-21 21:23 | 39.18329 | -74.83328 | 19303 ft | 293 kts | 341° |
| 2026-04-21 21:24 | 39.20290 | -74.84064 | 19297 ft | 294 kts | 341° |
| 2026-04-21 21:24 | 39.22237 | -74.84795 | 19298 ft | 294 kts | 341° |
| 2026-04-21 21:24 | 39.24198 | -74.85533 | 19291 ft | 294 kts | 341° |
| 2026-04-21 21:24 | 39.26174 | -74.86277 | 19284 ft | 292 kts | 341° |
| 2026-04-21 21:25 | 39.28101 | -74.87003 | 18955 ft | 285 kts | 341° |
| 2026-04-21 21:25 | 39.30003 | -74.87720 | 18573 ft | 280 kts | 340° |
| 2026-04-21 21:25 | 39.31847 | -74.88416 | 18203 ft | 275 kts | 340° |
| 2026-04-21 21:25 | 39.33688 | -74.89113 | 17814 ft | 279 kts | 340° |
| 2026-04-21 21:26 | 39.35593 | -74.89833 | 17421 ft | 284 kts | 340° |
| 2026-04-21 21:26 | 39.37508 | -74.90557 | 17059 ft | 289 kts | 340° |
| 2026-04-21 21:26 | 39.39451 | -74.91291 | 16716 ft | 290 kts | 341° |
| 2026-04-21 21:26 | 39.41380 | -74.92019 | 16351 ft | 288 kts | 341° |
| 2026-04-21 21:27 | 39.43311 | -74.92749 | 15956 ft | 287 kts | 340° |
| 2026-04-21 21:27 | 39.45220 | -74.93471 | 15585 ft | 285 kts | 341° |
| 2026-04-21 21:27 | 39.47130 | -74.94196 | 15206 ft | 285 kts | 341° |
| 2026-04-21 21:27 | 39.49062 | -74.94929 | 14833 ft | 289 kts | 341° |
| 2026-04-21 21:28 | 39.50993 | -74.95660 | 14465 ft | 292 kts | 341° |
| 2026-04-21 21:28 | 39.52946 | -74.96402 | 14088 ft | 292 kts | 340° |
| 2026-04-21 21:28 | 39.56333 | -74.99097 | 13352 ft | 287 kts | 324° |
| 2026-04-21 21:29 | 39.57971 | -75.00620 | 12988 ft | 286 kts | 323° |
| 2026-04-21 21:29 | 39.59573 | -75.02112 | 12605 ft | 284 kts | 323° |
| 2026-04-21 21:29 | 39.61157 | -75.03587 | 12215 ft | 281 kts | 323° |
| 2026-04-21 21:29 | 39.62741 | -75.05064 | 11845 ft | 278 kts | 323° |
| 2026-04-21 21:30 | 39.64302 | -75.06519 | 11452 ft | 273 kts | 323° |
| 2026-04-21 21:30 | 39.65821 | -75.07938 | 11044 ft | 264 kts | 323° |
| 2026-04-21 21:30 | 39.67476 | -75.08923 | 10658 ft | 262 kts | 346° |
| 2026-04-21 21:30 | 39.69302 | -75.08837 | 10304 ft | 262 kts | 1° |
| 2026-04-21 21:31 | 39.71082 | -75.08553 | 9920 ft | 257 kts | 0° |
| 2026-04-21 21:31 | 39.72818 | -75.08034 | 9529 ft | 263 kts | 19° |
| 2026-04-21 21:31 | 39.74256 | -75.06476 | 9161 ft | 272 kts | 42° |
| 2026-04-21 21:31 | 39.75490 | -75.04669 | 8804 ft | 268 kts | 40° |
| 2026-04-21 21:32 | 39.76764 | -75.02855 | 8315 ft | 270 kts | 41° |
| 2026-04-21 21:32 | 39.78030 | -75.01052 | 7866 ft | 269 kts | 42° |
| 2026-04-21 21:32 | 39.79291 | -74.99260 | 7148 ft | 265 kts | 43° |
| 2026-04-21 21:32 | 39.80494 | -74.97545 | 6693 ft | 253 kts | 44° |
| 2026-04-21 21:33 | 39.81663 | -74.95881 | 6226 ft | 245 kts | 44° |
| 2026-04-21 21:33 | 39.82786 | -74.94281 | 5765 ft | 238 kts | 45° |
| 2026-04-21 21:33 | 39.83655 | -74.92486 | 5320 ft | 235 kts | 71° |
| 2026-04-21 21:33 | 39.84079 | -74.90451 | 4877 ft | 231 kts | 73° |
| 2026-04-21 21:34 | 39.84828 | -74.88666 | 4433 ft | 222 kts | 39° |
| 2026-04-21 21:34 | 39.86178 | -74.87856 | 4062 ft | 218 kts | 2° |
| 2026-04-21 21:34 | 39.87699 | -74.88058 | 3641 ft | 222 kts | 347° |
| 2026-04-21 21:34 | 39.89232 | -74.88434 | 3236 ft | 228 kts | 348° |
| 2026-04-21 21:35 | 39.90786 | -74.88818 | 3004 ft | 224 kts | 347° |
| 2026-04-21 21:35 | 39.92240 | -74.89362 | 2973 ft | 209 kts | 326° |
| 2026-04-21 21:35 | 39.93138 | -74.90755 | 3005 ft | 203 kts | 292° |
| 2026-04-21 21:35 | 39.93279 | -74.92549 | 3004 ft | 203 kts | 259° |
| 2026-04-21 21:36 | 39.92986 | -74.94373 | 2989 ft | 208 kts | 258° |
| 2026-04-21 21:36 | 39.92670 | -74.96177 | 2981 ft | 203 kts | 256° |
| 2026-04-21 21:36 | 39.92334 | -74.97970 | 2981 ft | 201 kts | 256° |
| 2026-04-21 21:36 | 39.91994 | -74.99738 | 2975 ft | 199 kts | 256° |
| 2026-04-21 21:37 | 39.91656 | -75.01467 | 2972 ft | 198 kts | 256° |
| 2026-04-21 21:37 | 39.91324 | -75.03155 | 2994 ft | 188 kts | 256° |
| 2026-04-21 21:37 | 39.90997 | -75.04810 | 2752 ft | 185 kts | 255° |
| 2026-04-21 21:37 | 39.90677 | -75.06425 | 2518 ft | 182 kts | 256° |
| 2026-04-21 21:38 | 39.90362 | -75.08018 | 2278 ft | 180 kts | 255° |
| 2026-04-21 21:38 | 39.90052 | -75.09581 | 2037 ft | 178 kts | 255° |
| 2026-04-21 21:38 | 39.89745 | -75.11131 | 1796 ft | 176 kts | 255° |
| 2026-04-21 21:38 | 39.89446 | -75.12640 | 1585 ft | 161 kts | 255° |
| 2026-04-21 21:39 | 39.89178 | -75.13989 | 1347 ft | 147 kts | 254° |
| 2026-04-21 21:39 | 39.88939 | -75.15192 | 1151 ft | 131 kts | 254° |
| 2026-04-21 21:39 | 39.88714 | -75.16323 | 982 ft | 129 kts | 253° |
| 2026-04-21 21:39 | 39.88488 | -75.17457 | 810 ft | 129 kts | 253° |
| 2026-04-21 21:40 | 39.88252 | -75.18610 | 612 ft | 132 kts | 253° |
| 2026-04-21 21:40 | 39.88018 | -75.19752 | 466 ft | 130 kts | 253° |
| 2026-04-21 21:40 | 39.87796 | -75.20893 | 303 ft | 130 kts | 253° |
| 2026-04-21 21:40 | 39.87574 | -75.22032 | 118 ft | 128 kts | 252° |
| 2026-04-21 21:41 | 39.87357 | -75.23113 | 18 ft | 114 kts | 255° |
| 2026-04-21 21:41 | 39.87216 | -75.23824 | 15 ft | 39 kts | 255° |
| 2026-04-21 21:41 | 39.87174 | -75.24058 | 15 ft | 21 kts | 270° |
| 2026-04-21 21:41 | 39.87247 | -75.24153 | 14 ft | 11 kts | 5° |
| 2026-04-21 21:42 | 39.87276 | -75.24091 | 14 ft | 9 kts | 75° |
| 2026-04-21 21:42 | 39.87293 | -75.24002 | 13 ft | 11 kts | 75° |
| 2026-04-21 21:42 | 39.87315 | -75.23891 | 13 ft | 13 kts | 75° |
| 2026-04-21 21:42 | 39.87341 | -75.23765 | 14 ft | 15 kts | 75° |
| 2026-04-21 21:43 | 39.87369 | -75.23626 | 14 ft | 16 kts | 76° |
| 2026-04-21 21:43 | 39.87400 | -75.23470 | 14 ft | 19 kts | 76° |
| 2026-04-21 21:43 | 39.87434 | -75.23296 | 14 ft | 18 kts | 76° |
| 2026-04-21 21:43 | 39.87492 | -75.23255 | 13 ft | 11 kts | 338° |
| 2026-04-21 21:44 | 39.87580 | -75.23299 | 13 ft | 14 kts | 339° |
| 2026-04-21 21:44 | 39.87683 | -75.23350 | 12 ft | 16 kts | 339° |
| 2026-04-21 21:44 | 39.87797 | -75.23408 | 14 ft | 18 kts | 340° |
| 2026-04-21 21:44 | 39.87903 | -75.23436 | 14 ft | 15 kts | 2° |
| 2026-04-21 21:45 | 39.88016 | -75.23471 | 14 ft | 17 kts | 339° |
| 2026-04-21 21:45 | 39.88089 | -75.23534 | 13 ft | 9 kts | 292° |
| 2026-04-21 21:45 | 39.88108 | -75.23608 | 14 ft | 4 kts | 262° |
| 2026-04-21 21:45 | 39.88083 | -75.23645 | 14 ft | 6 kts | 220° |
| 2026-04-21 21:46 | 39.88070 | -75.23659 | 14 ft | 0 kts | 219° |